sensor_id;sensor_type;location;lat;lon;timestamp;temperature;humidity
7894;DHT22;51343;51.396;6.656;2022-09-21T00:01:03;8.30;99.90
7894;DHT22;51343;51.396;6.656;2022-09-21T00:03:29;8.30;99.90
7894;DHT22;51343;51.396;6.656;2022-09-21T00:06:00;8.30;99.90
7894;DHT22;51343;51.396;6.656;2022-09-21T00:08:27;8.30;99.90
7894;DHT22;51343;51.396;6.656;2022-09-21T00:10:55;8.30;99.90
7894;DHT22;51343;51.396;6.656;2022-09-21T00:13:21;8.30;99.90
7894;DHT22;51343;51.396;6.656;2022-09-21T00:15:48;8.30;99.90
7894;DHT22;51343;51.396;6.656;2022-09-21T00:18:15;8.30;99.90
7894;DHT22;51343;51.396;6.656;2022-09-21T00:20:41;8.30;99.90
7894;DHT22;51343;51.396;6.656;2022-09-21T00:23:08;8.30;99.90
7894;DHT22;51343;51.396;6.656;2022-09-21T00:25:35;8.30;99.90
7894;DHT22;51343;51.396;6.656;2022-09-21T00:28:03;8.30;99.90
7894;DHT22;51343;51.396;6.656;2022-09-21T00:30:30;8.30;99.90
7894;DHT22;51343;51.396;6.656;2022-09-21T00:32:56;8.30;99.90
7894;DHT22;51343;51.396;6.656;2022-09-21T00:35:23;8.30;99.90
7894;DHT22;51343;51.396;6.656;2022-09-21T00:37:50;8.30;99.90
7894;DHT22;51343;51.396;6.656;2022-09-21T00:40:17;8.30;99.90
7894;DHT22;51343;51.396;6.656;2022-09-21T00:42:43;8.30;99.90
7894;DHT22;51343;51.396;6.656;2022-09-21T00:45:11;8.30;99.90
7894;DHT22;51343;51.396;6.656;2022-09-21T00:47:46;8.30;99.90
7894;DHT22;51343;51.396;6.656;2022-09-21T00:50:14;8.30;99.90
7894;DHT22;51343;51.396;6.656;2022-09-21T00:52:42;8.30;99.90
7894;DHT22;51343;51.396;6.656;2022-09-21T00:55:09;8.30;99.90
7894;DHT22;51343;51.396;6.656;2022-09-21T00:57:37;8.30;99.90
7894;DHT22;51343;51.396;6.656;2022-09-21T01:00:05;8.30;99.90
7894;DHT22;51343;51.396;6.656;2022-09-21T01:02:35;8.30;99.90
7894;DHT22;51343;51.396;6.656;2022-09-21T01:05:02;8.30;99.90
7894;DHT22;51343;51.396;6.656;2022-09-21T01:07:29;8.30;99.90
7894;DHT22;51343;51.396;6.656;2022-09-21T01:09:59;8.30;99.90
7894;DHT22;51343;51.396;6.656;2022-09-21T01:12:33;8.30;99.90
7894;DHT22;51343;51.396;6.656;2022-09-21T01:15:08;8.30;99.90
7894;DHT22;51343;51.396;6.656;2022-09-21T01:17:40;8.30;99.90
7894;DHT22;51343;51.396;6.656;2022-09-21T01:22:57;8.30;99.90
7894;DHT22;51343;51.396;6.656;2022-09-21T01:25:28;8.30;99.90
7894;DHT22;51343;51.396;6.656;2022-09-21T01:28:03;8.40;99.90
7894;DHT22;51343;51.396;6.656;2022-09-21T01:30:33;8.40;99.90
7894;DHT22;51343;51.396;6.656;2022-09-21T01:33:03;8.40;99.90
7894;DHT22;51343;51.396;6.656;2022-09-21T01:35:31;8.40;99.90
7894;DHT22;51343;51.396;6.656;2022-09-21T01:38:00;8.40;99.90
7894;DHT22;51343;51.396;6.656;2022-09-21T01:40:29;8.50;99.90
7894;DHT22;51343;51.396;6.656;2022-09-21T01:42:57;8.50;99.90
7894;DHT22;51343;51.396;6.656;2022-09-21T01:45:26;8.50;99.90
7894;DHT22;51343;51.396;6.656;2022-09-21T01:47:55;8.50;99.90
7894;DHT22;51343;51.396;6.656;2022-09-21T01:50:22;8.40;99.90
7894;DHT22;51343;51.396;6.656;2022-09-21T01:52:51;8.40;99.90
7894;DHT22;51343;51.396;6.656;2022-09-21T01:55:21;8.40;99.90
7894;DHT22;51343;51.396;6.656;2022-09-21T01:57:51;8.40;99.90
7894;DHT22;51343;51.396;6.656;2022-09-21T02:00:19;8.40;99.90
7894;DHT22;51343;51.396;6.656;2022-09-21T02:02:47;8.30;99.90
7894;DHT22;51343;51.396;6.656;2022-09-21T02:05:17;8.30;99.90
7894;DHT22;51343;51.396;6.656;2022-09-21T02:07:45;8.30;99.90
7894;DHT22;51343;51.396;6.656;2022-09-21T02:10:14;8.30;99.90
7894;DHT22;51343;51.396;6.656;2022-09-21T02:12:42;8.40;99.90
7894;DHT22;51343;51.396;6.656;2022-09-21T02:15:09;8.40;99.90
7894;DHT22;51343;51.396;6.656;2022-09-21T02:17:39;8.40;99.90
7894;DHT22;51343;51.396;6.656;2022-09-21T02:20:13;8.30;99.90
7894;DHT22;51343;51.396;6.656;2022-09-21T02:22:47;8.30;99.90
7894;DHT22;51343;51.396;6.656;2022-09-21T02:25:15;8.30;99.90
7894;DHT22;51343;51.396;6.656;2022-09-21T02:27:44;8.30;99.90
7894;DHT22;51343;51.396;6.656;2022-09-21T02:30:13;8.30;99.90
7894;DHT22;51343;51.396;6.656;2022-09-21T02:32:42;8.30;99.90
7894;DHT22;51343;51.396;6.656;2022-09-21T02:35:12;8.30;99.90
7894;DHT22;51343;51.396;6.656;2022-09-21T02:37:43;8.30;99.90
7894;DHT22;51343;51.396;6.656;2022-09-21T02:40:15;8.30;99.90
7894;DHT22;51343;51.396;6.656;2022-09-21T02:42:45;8.20;99.90
7894;DHT22;51343;51.396;6.656;2022-09-21T02:45:15;8.20;99.90
7894;DHT22;51343;51.396;6.656;2022-09-21T02:47:45;8.20;99.90
7894;DHT22;51343;51.396;6.656;2022-09-21T02:50:15;8.30;99.90
7894;DHT22;51343;51.396;6.656;2022-09-21T02:52:43;8.20;99.90
7894;DHT22;51343;51.396;6.656;2022-09-21T02:55:10;8.20;99.90
7894;DHT22;51343;51.396;6.656;2022-09-21T02:57:39;8.20;99.90
7894;DHT22;51343;51.396;6.656;2022-09-21T03:00:06;8.20;99.90
7894;DHT22;51343;51.396;6.656;2022-09-21T03:02:37;8.20;99.90
7894;DHT22;51343;51.396;6.656;2022-09-21T03:05:03;8.20;99.90
7894;DHT22;51343;51.396;6.656;2022-09-21T03:07:31;8.10;99.90
7894;DHT22;51343;51.396;6.656;2022-09-21T03:09:58;8.10;99.90
7894;DHT22;51343;51.396;6.656;2022-09-21T03:12:24;8.10;99.90
7894;DHT22;51343;51.396;6.656;2022-09-21T03:14:53;8.10;99.90
7894;DHT22;51343;51.396;6.656;2022-09-21T03:17:20;8.00;99.90
7894;DHT22;51343;51.396;6.656;2022-09-21T03:19:46;8.00;99.90
7894;DHT22;51343;51.396;6.656;2022-09-21T03:22:13;8.00;99.90
7894;DHT22;51343;51.396;6.656;2022-09-21T03:24:41;7.90;99.90
7894;DHT22;51343;51.396;6.656;2022-09-21T03:27:14;7.90;99.90
7894;DHT22;51343;51.396;6.656;2022-09-21T03:29:41;7.90;99.90
7894;DHT22;51343;51.396;6.656;2022-09-21T03:32:09;7.80;99.90
7894;DHT22;51343;51.396;6.656;2022-09-21T03:34:36;7.80;99.90
7894;DHT22;51343;51.396;6.656;2022-09-21T03:37:03;7.70;99.90
7894;DHT22;51343;51.396;6.656;2022-09-21T03:39:30;7.70;99.90
7894;DHT22;51343;51.396;6.656;2022-09-21T03:41:57;7.70;99.90
7894;DHT22;51343;51.396;6.656;2022-09-21T03:44:24;7.60;99.90
7894;DHT22;51343;51.396;6.656;2022-09-21T03:46:51;7.60;99.90
7894;DHT22;51343;51.396;6.656;2022-09-21T03:49:19;7.60;99.90
7894;DHT22;51343;51.396;6.656;2022-09-21T03:51:46;7.50;99.90
7894;DHT22;51343;51.396;6.656;2022-09-21T03:54:13;7.50;99.90
7894;DHT22;51343;51.396;6.656;2022-09-21T03:56:39;7.50;99.90
7894;DHT22;51343;51.396;6.656;2022-09-21T03:59:06;7.50;99.90
7894;DHT22;51343;51.396;6.656;2022-09-21T04:01:33;7.40;99.90
7894;DHT22;51343;51.396;6.656;2022-09-21T04:04:01;7.40;99.90
7894;DHT22;51343;51.396;6.656;2022-09-21T04:06:29;7.40;99.90
7894;DHT22;51343;51.396;6.656;2022-09-21T04:08:56;7.40;99.90
7894;DHT22;51343;51.396;6.656;2022-09-21T04:11:24;7.30;99.90
7894;DHT22;51343;51.396;6.656;2022-09-21T04:13:51;7.30;99.90
7894;DHT22;51343;51.396;6.656;2022-09-21T04:16:21;7.20;99.90
7894;DHT22;51343;51.396;6.656;2022-09-21T04:18:48;7.20;99.90
7894;DHT22;51343;51.396;6.656;2022-09-21T04:21:15;7.10;99.90
7894;DHT22;51343;51.396;6.656;2022-09-21T04:23:43;7.10;99.90
7894;DHT22;51343;51.396;6.656;2022-09-21T04:26:19;7.10;99.90
7894;DHT22;51343;51.396;6.656;2022-09-21T04:28:47;7.00;99.90
7894;DHT22;51343;51.396;6.656;2022-09-21T04:31:14;7.00;99.90
7894;DHT22;51343;51.396;6.656;2022-09-21T04:33:40;7.00;99.90
7894;DHT22;51343;51.396;6.656;2022-09-21T04:36:07;7.00;99.90
7894;DHT22;51343;51.396;6.656;2022-09-21T04:38:33;7.00;99.90
7894;DHT22;51343;51.396;6.656;2022-09-21T04:41:01;6.90;99.90
7894;DHT22;51343;51.396;6.656;2022-09-21T04:43:28;6.90;99.90
7894;DHT22;51343;51.396;6.656;2022-09-21T04:45:55;6.90;99.90
7894;DHT22;51343;51.396;6.656;2022-09-21T04:48:21;6.90;99.90
7894;DHT22;51343;51.396;6.656;2022-09-21T04:50:48;6.90;99.90
7894;DHT22;51343;51.396;6.656;2022-09-21T04:53:15;6.80;99.90
7894;DHT22;51343;51.396;6.656;2022-09-21T04:55:43;6.80;99.90
7894;DHT22;51343;51.396;6.656;2022-09-21T04:58:11;6.80;99.90
7894;DHT22;51343;51.396;6.656;2022-09-21T05:00:37;6.80;99.90
7894;DHT22;51343;51.396;6.656;2022-09-21T05:03:04;6.80;99.90
7894;DHT22;51343;51.396;6.656;2022-09-21T05:05:30;6.70;99.90
7894;DHT22;51343;51.396;6.656;2022-09-21T05:07:57;6.70;99.90
7894;DHT22;51343;51.396;6.656;2022-09-21T05:10:24;6.60;99.90
7894;DHT22;51343;51.396;6.656;2022-09-21T05:12:49;6.60;99.90
7894;DHT22;51343;51.396;6.656;2022-09-21T05:15:18;6.60;99.90
7894;DHT22;51343;51.396;6.656;2022-09-21T05:17:45;6.60;99.90
7894;DHT22;51343;51.396;6.656;2022-09-21T05:20:12;6.50;99.90
7894;DHT22;51343;51.396;6.656;2022-09-21T05:22:38;6.60;99.90
7894;DHT22;51343;51.396;6.656;2022-09-21T05:25:06;6.60;99.90
7894;DHT22;51343;51.396;6.656;2022-09-21T05:27:33;6.60;99.90
7894;DHT22;51343;51.396;6.656;2022-09-21T05:30:00;6.50;99.90
7894;DHT22;51343;51.396;6.656;2022-09-21T05:32:31;6.50;99.90
7894;DHT22;51343;51.396;6.656;2022-09-21T05:35:05;6.50;99.90
7894;DHT22;51343;51.396;6.656;2022-09-21T05:37:37;6.50;99.90
7894;DHT22;51343;51.396;6.656;2022-09-21T05:40:07;6.50;99.90
7894;DHT22;51343;51.396;6.656;2022-09-21T05:42:35;6.60;99.90
7894;DHT22;51343;51.396;6.656;2022-09-21T05:45:02;6.60;99.90
7894;DHT22;51343;51.396;6.656;2022-09-21T05:47:34;6.60;99.90
7894;DHT22;51343;51.396;6.656;2022-09-21T05:50:02;6.60;99.90
7894;DHT22;51343;51.396;6.656;2022-09-21T05:52:33;6.60;99.90
7894;DHT22;51343;51.396;6.656;2022-09-21T05:55:05;6.60;99.90
7894;DHT22;51343;51.396;6.656;2022-09-21T05:57:35;6.70;99.90
7894;DHT22;51343;51.396;6.656;2022-09-21T06:00:08;6.70;99.90
7894;DHT22;51343;51.396;6.656;2022-09-21T06:02:45;6.70;99.90
7894;DHT22;51343;51.396;6.656;2022-09-21T06:05:15;6.80;99.90
7894;DHT22;51343;51.396;6.656;2022-09-21T06:07:42;6.90;99.90
7894;DHT22;51343;51.396;6.656;2022-09-21T06:10:08;7.00;99.90
7894;DHT22;51343;51.396;6.656;2022-09-21T06:12:35;7.10;99.90
7894;DHT22;51343;51.396;6.656;2022-09-21T06:15:02;7.20;99.90
7894;DHT22;51343;51.396;6.656;2022-09-21T06:17:29;7.40;99.90
7894;DHT22;51343;51.396;6.656;2022-09-21T06:19:56;7.50;99.90
7894;DHT22;51343;51.396;6.656;2022-09-21T06:22:23;7.70;99.90
7894;DHT22;51343;51.396;6.656;2022-09-21T06:24:50;7.80;99.90
7894;DHT22;51343;51.396;6.656;2022-09-21T06:27:16;8.00;99.90
7894;DHT22;51343;51.396;6.656;2022-09-21T06:29:43;8.10;99.90
7894;DHT22;51343;51.396;6.656;2022-09-21T06:32:09;8.20;99.90
7894;DHT22;51343;51.396;6.656;2022-09-21T06:34:36;8.30;99.90
7894;DHT22;51343;51.396;6.656;2022-09-21T06:37:05;8.50;99.90
7894;DHT22;51343;51.396;6.656;2022-09-21T06:39:31;8.70;99.90
7894;DHT22;51343;51.396;6.656;2022-09-21T06:41:58;8.80;99.90
7894;DHT22;51343;51.396;6.656;2022-09-21T06:44:24;9.00;99.90
7894;DHT22;51343;51.396;6.656;2022-09-21T06:46:51;9.20;99.90
7894;DHT22;51343;51.396;6.656;2022-09-21T06:49:18;9.40;99.90
7894;DHT22;51343;51.396;6.656;2022-09-21T06:51:46;9.50;99.90
7894;DHT22;51343;51.396;6.656;2022-09-21T06:54:14;9.60;99.90
7894;DHT22;51343;51.396;6.656;2022-09-21T06:56:41;9.70;99.90
7894;DHT22;51343;51.396;6.656;2022-09-21T06:59:08;9.90;99.90
7894;DHT22;51343;51.396;6.656;2022-09-21T07:01:35;10.00;99.90
7894;DHT22;51343;51.396;6.656;2022-09-21T07:04:01;10.10;99.90
7894;DHT22;51343;51.396;6.656;2022-09-21T07:06:28;10.20;99.90
7894;DHT22;51343;51.396;6.656;2022-09-21T07:08:55;10.30;99.90
7894;DHT22;51343;51.396;6.656;2022-09-21T07:11:24;10.30;99.90
7894;DHT22;51343;51.396;6.656;2022-09-21T07:13:51;10.40;99.90
7894;DHT22;51343;51.396;6.656;2022-09-21T07:16:18;10.50;99.90
7894;DHT22;51343;51.396;6.656;2022-09-21T07:18:45;10.50;99.90
7894;DHT22;51343;51.396;6.656;2022-09-21T07:21:13;10.60;99.90
7894;DHT22;51343;51.396;6.656;2022-09-21T07:23:40;10.70;99.90
7894;DHT22;51343;51.396;6.656;2022-09-21T07:26:07;10.80;99.90
7894;DHT22;51343;51.396;6.656;2022-09-21T07:28:35;10.90;99.90
7894;DHT22;51343;51.396;6.656;2022-09-21T07:31:04;10.90;99.90
7894;DHT22;51343;51.396;6.656;2022-09-21T07:33:31;11.00;99.90
7894;DHT22;51343;51.396;6.656;2022-09-21T07:35:59;11.10;99.90
7894;DHT22;51343;51.396;6.656;2022-09-21T07:38:28;11.10;99.90
7894;DHT22;51343;51.396;6.656;2022-09-21T07:40:55;11.10;99.90
7894;DHT22;51343;51.396;6.656;2022-09-21T07:43:21;11.10;99.90
7894;DHT22;51343;51.396;6.656;2022-09-21T07:45:53;11.20;99.90
7894;DHT22;51343;51.396;6.656;2022-09-21T07:48:20;11.20;99.90
7894;DHT22;51343;51.396;6.656;2022-09-21T07:50:47;11.30;99.90
7894;DHT22;51343;51.396;6.656;2022-09-21T07:53:14;11.30;99.90
7894;DHT22;51343;51.396;6.656;2022-09-21T07:55:41;11.30;99.90
7894;DHT22;51343;51.396;6.656;2022-09-21T07:58:08;11.40;99.90
7894;DHT22;51343;51.396;6.656;2022-09-21T08:00:54;11.50;99.90
7894;DHT22;51343;51.396;6.656;2022-09-21T08:03:20;11.50;99.90
7894;DHT22;51343;51.396;6.656;2022-09-21T08:05:47;11.50;99.90
7894;DHT22;51343;51.396;6.656;2022-09-21T08:08:13;11.50;99.90
7894;DHT22;51343;51.396;6.656;2022-09-21T08:10:41;11.50;99.90
7894;DHT22;51343;51.396;6.656;2022-09-21T08:13:08;11.50;99.90
7894;DHT22;51343;51.396;6.656;2022-09-21T08:15:34;11.50;99.90
7894;DHT22;51343;51.396;6.656;2022-09-21T08:18:04;11.60;99.90
7894;DHT22;51343;51.396;6.656;2022-09-21T08:20:31;11.70;99.90
7894;DHT22;51343;51.396;6.656;2022-09-21T08:22:58;11.70;99.90
7894;DHT22;51343;51.396;6.656;2022-09-21T08:25:24;11.70;99.90
7894;DHT22;51343;51.396;6.656;2022-09-21T08:27:51;11.70;99.90
7894;DHT22;51343;51.396;6.656;2022-09-21T08:30:22;11.80;99.90
7894;DHT22;51343;51.396;6.656;2022-09-21T08:32:52;11.80;99.90
7894;DHT22;51343;51.396;6.656;2022-09-21T08:35:21;11.90;99.90
7894;DHT22;51343;51.396;6.656;2022-09-21T08:37:47;12.00;99.90
7894;DHT22;51343;51.396;6.656;2022-09-21T08:40:15;12.10;99.90
7894;DHT22;51343;51.396;6.656;2022-09-21T08:42:44;12.10;99.90
7894;DHT22;51343;51.396;6.656;2022-09-21T08:45:15;12.20;99.90
7894;DHT22;51343;51.396;6.656;2022-09-21T08:47:43;12.20;99.90
7894;DHT22;51343;51.396;6.656;2022-09-21T08:52:59;12.20;99.90
7894;DHT22;51343;51.396;6.656;2022-09-21T08:55:27;12.30;99.90
7894;DHT22;51343;51.396;6.656;2022-09-21T08:57:53;12.40;99.90
7894;DHT22;51343;51.396;6.656;2022-09-21T09:00:20;12.40;99.90
7894;DHT22;51343;51.396;6.656;2022-09-21T09:02:58;12.40;99.90
7894;DHT22;51343;51.396;6.656;2022-09-21T09:05:32;12.50;99.90
7894;DHT22;51343;51.396;6.656;2022-09-21T09:08:17;12.60;99.90
7894;DHT22;51343;51.396;6.656;2022-09-21T09:10:49;12.80;99.90
7894;DHT22;51343;51.396;6.656;2022-09-21T09:13:23;12.80;99.90
7894;DHT22;51343;51.396;6.656;2022-09-21T09:15:59;12.90;99.90
7894;DHT22;51343;51.396;6.656;2022-09-21T09:18:31;13.00;99.90
7894;DHT22;51343;51.396;6.656;2022-09-21T09:21:00;13.10;99.90
7894;DHT22;51343;51.396;6.656;2022-09-21T09:23:31;13.10;99.90
7894;DHT22;51343;51.396;6.656;2022-09-21T09:26:00;13.20;99.90
7894;DHT22;51343;51.396;6.656;2022-09-21T09:28:29;13.20;99.90
7894;DHT22;51343;51.396;6.656;2022-09-21T09:30:59;13.30;99.90
7894;DHT22;51343;51.396;6.656;2022-09-21T09:33:27;13.30;99.90
7894;DHT22;51343;51.396;6.656;2022-09-21T09:35:57;13.60;99.90
7894;DHT22;51343;51.396;6.656;2022-09-21T09:38:26;13.80;99.90
7894;DHT22;51343;51.396;6.656;2022-09-21T09:40:58;13.90;1.00
7894;DHT22;51343;51.396;6.656;2022-09-21T09:43:29;13.90;99.90
7894;DHT22;51343;51.396;6.656;2022-09-21T09:46:03;14.20;99.90
7894;DHT22;51343;51.396;6.656;2022-09-21T09:48:40;14.20;1.00
7894;DHT22;51343;51.396;6.656;2022-09-21T09:51:09;14.40;99.90
7894;DHT22;51343;51.396;6.656;2022-09-21T09:53:36;14.60;28.50
7894;DHT22;51343;51.396;6.656;2022-09-21T09:56:04;14.80;1.00
7894;DHT22;51343;51.396;6.656;2022-09-21T09:58:34;15.10;1.00
7894;DHT22;51343;51.396;6.656;2022-09-21T10:01:02;15.30;1.00
7894;DHT22;51343;51.396;6.656;2022-09-21T10:03:29;15.50;1.00
7894;DHT22;51343;51.396;6.656;2022-09-21T10:05:56;15.80;1.00
7894;DHT22;51343;51.396;6.656;2022-09-21T10:08:30;16.10;1.00
7894;DHT22;51343;51.396;6.656;2022-09-21T10:10:56;16.40;1.00
7894;DHT22;51343;51.396;6.656;2022-09-21T10:13:25;16.70;42.90
7894;DHT22;51343;51.396;6.656;2022-09-21T10:15:54;17.00;1.00
7894;DHT22;51343;51.396;6.656;2022-09-21T10:18:22;17.20;1.00
7894;DHT22;51343;51.396;6.656;2022-09-21T10:20:52;17.30;1.00
7894;DHT22;51343;51.396;6.656;2022-09-21T10:23:20;17.40;1.00
7894;DHT22;51343;51.396;6.656;2022-09-21T10:25:51;17.50;99.90
7894;DHT22;51343;51.396;6.656;2022-09-21T10:28:19;17.80;1.00
7894;DHT22;51343;51.396;6.656;2022-09-21T10:30:49;18.20;1.00
7894;DHT22;51343;51.396;6.656;2022-09-21T10:33:32;18.50;1.00
7894;DHT22;51343;51.396;6.656;2022-09-21T10:35:59;18.60;1.00
7894;DHT22;51343;51.396;6.656;2022-09-21T10:38:26;18.50;1.00
7894;DHT22;51343;51.396;6.656;2022-09-21T10:40:53;18.60;1.00
7894;DHT22;51343;51.396;6.656;2022-09-21T10:43:22;19.00;1.00
7894;DHT22;51343;51.396;6.656;2022-09-21T10:45:54;19.10;1.00
7894;DHT22;51343;51.396;6.656;2022-09-21T10:48:22;19.30;1.00
7894;DHT22;51343;51.396;6.656;2022-09-21T10:50:49;19.70;99.90
7894;DHT22;51343;51.396;6.656;2022-09-21T10:53:18;20.20;99.90
7894;DHT22;51343;51.396;6.656;2022-09-21T10:55:52;20.30;1.00
7894;DHT22;51343;51.396;6.656;2022-09-21T10:58:20;20.50;99.90
7894;DHT22;51343;51.396;6.656;2022-09-21T11:00:48;20.40;99.90
7894;DHT22;51343;51.396;6.656;2022-09-21T11:03:27;20.30;99.90
7894;DHT22;51343;51.396;6.656;2022-09-21T11:05:55;20.40;99.90
7894;DHT22;51343;51.396;6.656;2022-09-21T11:08:25;20.40;3.50
7894;DHT22;51343;51.396;6.656;2022-09-21T11:10:59;20.40;1.00
7894;DHT22;51343;51.396;6.656;2022-09-21T11:13:29;20.10;1.00
7894;DHT22;51343;51.396;6.656;2022-09-21T11:15:58;20.40;99.90
7894;DHT22;51343;51.396;6.656;2022-09-21T11:18:35;20.80;91.50
7894;DHT22;51343;51.396;6.656;2022-09-21T11:21:04;20.20;1.00
7894;DHT22;51343;51.396;6.656;2022-09-21T11:23:43;19.50;99.90
7894;DHT22;51343;51.396;6.656;2022-09-21T11:26:14;19.50;1.00
7894;DHT22;51343;51.396;6.656;2022-09-21T11:28:44;19.60;1.00
7894;DHT22;51343;51.396;6.656;2022-09-21T11:31:20;19.50;1.00
7894;DHT22;51343;51.396;6.656;2022-09-21T11:33:55;20.30;99.90
7894;DHT22;51343;51.396;6.656;2022-09-21T11:36:29;20.40;1.00
7894;DHT22;51343;51.396;6.656;2022-09-21T11:38:59;20.40;99.90
7894;DHT22;51343;51.396;6.656;2022-09-21T11:41:39;19.60;38.50
7894;DHT22;51343;51.396;6.656;2022-09-21T11:44:17;18.50;99.90
7894;DHT22;51343;51.396;6.656;2022-09-21T11:46:46;17.90;1.00
7894;DHT22;51343;51.396;6.656;2022-09-21T11:49:39;18.40;1.00
7894;DHT22;51343;51.396;6.656;2022-09-21T11:52:12;18.80;1.00
7894;DHT22;51343;51.396;6.656;2022-09-21T11:54:50;19.50;1.00
7894;DHT22;51343;51.396;6.656;2022-09-21T11:57:22;19.60;1.00
7894;DHT22;51343;51.396;6.656;2022-09-21T11:59:53;19.10;1.00
7894;DHT22;51343;51.396;6.656;2022-09-21T12:02:30;19.10;1.00
7894;DHT22;51343;51.396;6.656;2022-09-21T12:05:04;18.70;1.00
7894;DHT22;51343;51.396;6.656;2022-09-21T12:07:37;18.10;99.90
7894;DHT22;51343;51.396;6.656;2022-09-21T12:10:13;17.80;99.90
7894;DHT22;51343;51.396;6.656;2022-09-21T12:12:42;18.30;99.90
7894;DHT22;51343;51.396;6.656;2022-09-21T12:15:12;19.30;1.00
7894;DHT22;51343;51.396;6.656;2022-09-21T12:17:44;19.90;99.90
7894;DHT22;51343;51.396;6.656;2022-09-21T12:20:16;20.60;1.00
7894;DHT22;51343;51.396;6.656;2022-09-21T12:22:45;21.20;1.00
7894;DHT22;51343;51.396;6.656;2022-09-21T12:25:13;21.70;99.90
7894;DHT22;51343;51.396;6.656;2022-09-21T12:27:43;22.00;1.00
7894;DHT22;51343;51.396;6.656;2022-09-21T12:30:13;22.00;99.90
7894;DHT22;51343;51.396;6.656;2022-09-21T12:32:47;21.30;1.00
7894;DHT22;51343;51.396;6.656;2022-09-21T12:35:20;20.40;1.00
7894;DHT22;51343;51.396;6.656;2022-09-21T12:37:50;19.50;99.90
7894;DHT22;51343;51.396;6.656;2022-09-21T12:40:20;18.80;1.00
7894;DHT22;51343;51.396;6.656;2022-09-21T12:42:52;18.30;1.00
7894;DHT22;51343;51.396;6.656;2022-09-21T12:45:21;17.80;1.00
7894;DHT22;51343;51.396;6.656;2022-09-21T12:47:51;17.40;1.00
7894;DHT22;51343;51.396;6.656;2022-09-21T12:50:24;17.20;98.60
7894;DHT22;51343;51.396;6.656;2022-09-21T12:52:52;17.00;1.00
7894;DHT22;51343;51.396;6.656;2022-09-21T12:55:23;16.90;1.00
7894;DHT22;51343;51.396;6.656;2022-09-21T12:57:55;16.80;99.90
7894;DHT22;51343;51.396;6.656;2022-09-21T13:00:23;16.80;1.00
7894;DHT22;51343;51.396;6.656;2022-09-21T13:02:55;16.80;99.90
7894;DHT22;51343;51.396;6.656;2022-09-21T13:05:30;16.90;1.00
7894;DHT22;51343;51.396;6.656;2022-09-21T13:08:03;17.10;12.10
7894;DHT22;51343;51.396;6.656;2022-09-21T13:10:36;17.30;1.00
7894;DHT22;51343;51.396;6.656;2022-09-21T13:13:05;17.30;1.00
7894;DHT22;51343;51.396;6.656;2022-09-21T13:15:40;17.20;99.90
7894;DHT22;51343;51.396;6.656;2022-09-21T13:18:14;17.20;99.90
7894;DHT22;51343;51.396;6.656;2022-09-21T13:20:43;17.20;1.00
7894;DHT22;51343;51.396;6.656;2022-09-21T13:23:13;17.10;1.00
7894;DHT22;51343;51.396;6.656;2022-09-21T13:25:40;17.10;99.90
7894;DHT22;51343;51.396;6.656;2022-09-21T13:28:17;17.10;99.90
7894;DHT22;51343;51.396;6.656;2022-09-21T13:30:48;17.20;90.60
7894;DHT22;51343;51.396;6.656;2022-09-21T13:33:28;17.30;1.00
7894;DHT22;51343;51.396;6.656;2022-09-21T13:36:01;18.00;1.00
7894;DHT22;51343;51.396;6.656;2022-09-21T13:38:30;19.10;99.90
7894;DHT22;51343;51.396;6.656;2022-09-21T13:40:59;19.60;7.40
7894;DHT22;51343;51.396;6.656;2022-09-21T13:49:13;19.70;1.00
7894;DHT22;51343;51.396;6.656;2022-09-21T13:51:49;19.70;99.90
7894;DHT22;51343;51.396;6.656;2022-09-21T13:54:18;19.60;99.90
7894;DHT22;51343;51.396;6.656;2022-09-21T13:56:45;19.50;99.90
7894;DHT22;51343;51.396;6.656;2022-09-21T13:59:18;18.90;1.00
7894;DHT22;51343;51.396;6.656;2022-09-21T14:01:46;18.60;99.90
7894;DHT22;51343;51.396;6.656;2022-09-21T14:04:15;18.10;99.90
7894;DHT22;51343;51.396;6.656;2022-09-21T14:06:44;17.70;99.90
7894;DHT22;51343;51.396;6.656;2022-09-21T14:09:19;17.30;1.00
7894;DHT22;51343;51.396;6.656;2022-09-21T14:11:51;17.10;99.90
7894;DHT22;51343;51.396;6.656;2022-09-21T14:14:20;16.90;99.20
7894;DHT22;51343;51.396;6.656;2022-09-21T14:16:53;16.80;99.90
7894;DHT22;51343;51.396;6.656;2022-09-21T14:27:36;16.80;98.60
7894;DHT22;51343;51.396;6.656;2022-09-21T14:30:15;16.90;99.90
7894;DHT22;51343;51.396;6.656;2022-09-21T14:32:42;16.70;99.90
7894;DHT22;51343;51.396;6.656;2022-09-21T14:35:12;16.70;1.00
7894;DHT22;51343;51.396;6.656;2022-09-21T14:37:41;16.60;71.50
7894;DHT22;51343;51.396;6.656;2022-09-21T14:40:15;16.50;1.00
7894;DHT22;51343;51.396;6.656;2022-09-21T14:42:44;16.40;1.00
7894;DHT22;51343;51.396;6.656;2022-09-21T14:45:13;16.30;1.00
7894;DHT22;51343;51.396;6.656;2022-09-21T14:47:48;16.20;1.00
7894;DHT22;51343;51.396;6.656;2022-09-21T14:53:03;16.10;1.00
7894;DHT22;51343;51.396;6.656;2022-09-21T14:55:40;16.00;1.00
7894;DHT22;51343;51.396;6.656;2022-09-21T15:00:54;15.90;1.00
7894;DHT22;51343;51.396;6.656;2022-09-21T15:03:28;15.90;1.00
7894;DHT22;51343;51.396;6.656;2022-09-21T15:06:02;15.80;99.90
7894;DHT22;51343;51.396;6.656;2022-09-21T15:08:55;15.80;1.00
7894;DHT22;51343;51.396;6.656;2022-09-21T15:11:49;15.80;99.90
7894;DHT22;51343;51.396;6.656;2022-09-21T15:14:18;15.80;99.90
7894;DHT22;51343;51.396;6.656;2022-09-21T15:16:48;15.70;1.00
7894;DHT22;51343;51.396;6.656;2022-09-21T15:19:25;15.70;99.90
7894;DHT22;51343;51.396;6.656;2022-09-21T15:21:52;15.90;99.90
7894;DHT22;51343;51.396;6.656;2022-09-21T15:24:23;16.20;1.00
7894;DHT22;51343;51.396;6.656;2022-09-21T15:26:51;16.30;1.00
7894;DHT22;51343;51.396;6.656;2022-09-21T15:29:23;16.50;1.00
7894;DHT22;51343;51.396;6.656;2022-09-21T15:31:52;16.60;1.00
7894;DHT22;51343;51.396;6.656;2022-09-21T15:34:19;16.60;99.90
7894;DHT22;51343;51.396;6.656;2022-09-21T15:36:46;16.60;99.90
7894;DHT22;51343;51.396;6.656;2022-09-21T15:39:24;16.60;99.90
7894;DHT22;51343;51.396;6.656;2022-09-21T15:44:32;16.70;99.90
7894;DHT22;51343;51.396;6.656;2022-09-21T15:47:00;16.80;99.90
7894;DHT22;51343;51.396;6.656;2022-09-21T15:49:27;16.80;99.90
7894;DHT22;51343;51.396;6.656;2022-09-21T15:51:54;16.90;1.00
7894;DHT22;51343;51.396;6.656;2022-09-21T15:54:25;16.90;99.90
7894;DHT22;51343;51.396;6.656;2022-09-21T15:56:54;17.00;99.90
7894;DHT22;51343;51.396;6.656;2022-09-21T15:59:21;17.10;1.00
7894;DHT22;51343;51.396;6.656;2022-09-21T16:01:49;17.20;1.00
7894;DHT22;51343;51.396;6.656;2022-09-21T16:04:19;17.20;99.90
7894;DHT22;51343;51.396;6.656;2022-09-21T16:06:46;17.30;99.90
7894;DHT22;51343;51.396;6.656;2022-09-21T16:09:26;17.30;99.90
7894;DHT22;51343;51.396;6.656;2022-09-21T16:11:54;17.30;99.90
7894;DHT22;51343;51.396;6.656;2022-09-21T16:14:21;17.30;1.00
7894;DHT22;51343;51.396;6.656;2022-09-21T16:17:18;17.30;23.30
7894;DHT22;51343;51.396;6.656;2022-09-21T16:22:29;17.10;1.00
7894;DHT22;51343;51.396;6.656;2022-09-21T16:24:57;17.00;99.90
7894;DHT22;51343;51.396;6.656;2022-09-21T16:27:24;16.90;77.80
7894;DHT22;51343;51.396;6.656;2022-09-21T16:29:53;16.80;99.90
7894;DHT22;51343;51.396;6.656;2022-09-21T16:32:20;16.70;1.00
7894;DHT22;51343;51.396;6.656;2022-09-21T16:34:53;16.70;1.00
7894;DHT22;51343;51.396;6.656;2022-09-21T16:37:30;16.60;98.20
7894;DHT22;51343;51.396;6.656;2022-09-21T16:39:57;16.60;99.90
7894;DHT22;51343;51.396;6.656;2022-09-21T16:42:25;16.50;99.90